sensor_id;sensor_type;location;lat;lon;timestamp;P1;durP1;ratioP1;P2;durP2;ratioP2
19758;SDS011;10038;42.662;23.278;2023-04-03T00:00:52;2.87;;;2.07;;
19758;SDS011;10038;42.662;23.278;2023-04-03T00:03:21;2.47;;;2.03;;
19758;SDS011;10038;42.662;23.278;2023-04-03T00:05:48;4.57;;;1.90;;
19758;SDS011;10038;42.662;23.278;2023-04-03T00:08:16;2.50;;;1.80;;
19758;SDS011;10038;42.662;23.278;2023-04-03T00:10:43;2.90;;;2.00;;
19758;SDS011;10038;42.662;23.278;2023-04-03T00:13:10;3.60;;;2.93;;
19758;SDS011;10038;42.662;23.278;2023-04-03T00:15:37;7.77;;;3.87;;
19758;SDS011;10038;42.662;23.278;2023-04-03T00:18:05;6.77;;;4.03;;
19758;SDS011;10038;42.662;23.278;2023-04-03T00:20:34;4.27;;;3.23;;
19758;SDS011;10038;42.662;23.278;2023-04-03T00:23:01;4.47;;;3.33;;
19758;SDS011;10038;42.662;23.278;2023-04-03T00:25:28;5.30;;;3.70;;
19758;SDS011;10038;42.662;23.278;2023-04-03T00:27:55;6.30;;;3.70;;
19758;SDS011;10038;42.662;23.278;2023-04-03T00:30:22;2.53;;;2.33;;
19758;SDS011;10038;42.662;23.278;2023-04-03T00:32:50;2.93;;;2.60;;
19758;SDS011;10038;42.662;23.278;2023-04-03T00:35:18;3.70;;;2.27;;
19758;SDS011;10038;42.662;23.278;2023-04-03T00:37:47;2.77;;;2.03;;
19758;SDS011;10038;42.662;23.278;2023-04-03T00:40:17;3.40;;;2.30;;
19758;SDS011;10038;42.662;23.278;2023-04-03T00:42:45;2.70;;;2.20;;
19758;SDS011;10038;42.662;23.278;2023-04-03T00:45:28;2.20;;;2.00;;
19758;SDS011;10038;42.662;23.278;2023-04-03T00:47:58;2.87;;;2.23;;
19758;SDS011;10038;42.662;23.278;2023-04-03T00:50:27;4.00;;;2.40;;
19758;SDS011;10038;42.662;23.278;2023-04-03T00:52:57;2.83;;;2.07;;
19758;SDS011;10038;42.662;23.278;2023-04-03T00:55:25;4.40;;;2.33;;
19758;SDS011;10038;42.662;23.278;2023-04-03T00:57:52;3.50;;;2.93;;
19758;SDS011;10038;42.662;23.278;2023-04-03T01:00:21;3.53;;;3.20;;
19758;SDS011;10038;42.662;23.278;2023-04-03T01:02:49;4.00;;;2.70;;
19758;SDS011;10038;42.662;23.278;2023-04-03T01:05:17;5.07;;;3.13;;
19758;SDS011;10038;42.662;23.278;2023-04-03T01:07:46;3.50;;;3.20;;
19758;SDS011;10038;42.662;23.278;2023-04-03T01:10:16;6.60;;;3.20;;
19758;SDS011;10038;42.662;23.278;2023-04-03T01:12:45;4.90;;;3.30;;
19758;SDS011;10038;42.662;23.278;2023-04-03T01:15:14;3.53;;;2.80;;
19758;SDS011;10038;42.662;23.278;2023-04-03T01:17:43;6.77;;;3.50;;
19758;SDS011;10038;42.662;23.278;2023-04-03T01:23:32;6.33;;;3.47;;
19758;SDS011;10038;42.662;23.278;2023-04-03T01:26:09;5.40;;;3.53;;
19758;SDS011;10038;42.662;23.278;2023-04-03T01:28:36;3.23;;;2.93;;
19758;SDS011;10038;42.662;23.278;2023-04-03T01:31:06;3.80;;;2.93;;
19758;SDS011;10038;42.662;23.278;2023-04-03T01:33:41;5.10;;;3.40;;
19758;SDS011;10038;42.662;23.278;2023-04-03T01:36:09;3.70;;;2.90;;
19758;SDS011;10038;42.662;23.278;2023-04-03T01:38:39;5.23;;;3.53;;
19758;SDS011;10038;42.662;23.278;2023-04-03T01:41:06;6.30;;;3.30;;
19758;SDS011;10038;42.662;23.278;2023-04-03T01:43:33;5.90;;;3.47;;
19758;SDS011;10038;42.662;23.278;2023-04-03T01:46:00;4.60;;;2.57;;
19758;SDS011;10038;42.662;23.278;2023-04-03T01:48:27;4.43;;;2.80;;
19758;SDS011;10038;42.662;23.278;2023-04-03T01:50:56;6.27;;;3.23;;
19758;SDS011;10038;42.662;23.278;2023-04-03T01:53:23;3.33;;;3.00;;
19758;SDS011;10038;42.662;23.278;2023-04-03T01:55:50;4.93;;;3.10;;
19758;SDS011;10038;42.662;23.278;2023-04-03T01:58:17;4.70;;;3.30;;
19758;SDS011;10038;42.662;23.278;2023-04-03T02:00:44;4.93;;;3.70;;
19758;SDS011;10038;42.662;23.278;2023-04-03T02:03:11;4.03;;;2.60;;
19758;SDS011;10038;42.662;23.278;2023-04-03T02:05:38;3.90;;;2.83;;
19758;SDS011;10038;42.662;23.278;2023-04-03T02:08:06;6.20;;;2.53;;
19758;SDS011;10038;42.662;23.278;2023-04-03T02:10:33;3.17;;;2.33;;
19758;SDS011;10038;42.662;23.278;2023-04-03T02:13:00;5.13;;;2.70;;
19758;SDS011;10038;42.662;23.278;2023-04-03T02:15:27;10.73;;;3.20;;
19758;SDS011;10038;42.662;23.278;2023-04-03T02:17:54;4.63;;;3.90;;
19758;SDS011;10038;42.662;23.278;2023-04-03T02:20:21;6.63;;;4.27;;
19758;SDS011;10038;42.662;23.278;2023-04-03T02:22:48;6.77;;;3.80;;
19758;SDS011;10038;42.662;23.278;2023-04-03T02:25:17;11.00;;;5.30;;
19758;SDS011;10038;42.662;23.278;2023-04-03T02:27:44;7.27;;;4.07;;
19758;SDS011;10038;42.662;23.278;2023-04-03T02:30:11;5.83;;;3.90;;
19758;SDS011;10038;42.662;23.278;2023-04-03T02:32:39;7.37;;;3.90;;
19758;SDS011;10038;42.662;23.278;2023-04-03T02:35:07;11.20;;;4.20;;
19758;SDS011;10038;42.662;23.278;2023-04-03T02:37:35;8.87;;;3.87;;
19758;SDS011;10038;42.662;23.278;2023-04-03T02:40:02;5.83;;;3.90;;
19758;SDS011;10038;42.662;23.278;2023-04-03T02:42:31;6.00;;;3.40;;
19758;SDS011;10038;42.662;23.278;2023-04-03T02:44:58;7.30;;;3.17;;
19758;SDS011;10038;42.662;23.278;2023-04-03T02:47:25;6.17;;;3.20;;
19758;SDS011;10038;42.662;23.278;2023-04-03T02:49:53;4.57;;;3.20;;
19758;SDS011;10038;42.662;23.278;2023-04-03T02:52:20;3.40;;;2.97;;
19758;SDS011;10038;42.662;23.278;2023-04-03T02:54:47;5.00;;;3.47;;
19758;SDS011;10038;42.662;23.278;2023-04-03T02:57:14;4.97;;;3.60;;
19758;SDS011;10038;42.662;23.278;2023-04-03T02:59:42;7.37;;;4.27;;
19758;SDS011;10038;42.662;23.278;2023-04-03T03:02:10;7.10;;;4.87;;
19758;SDS011;10038;42.662;23.278;2023-04-03T03:04:37;4.50;;;3.47;;
19758;SDS011;10038;42.662;23.278;2023-04-03T03:07:04;6.00;;;3.90;;
19758;SDS011;10038;42.662;23.278;2023-04-03T03:09:31;6.43;;;3.67;;
19758;SDS011;10038;42.662;23.278;2023-04-03T03:11:58;5.87;;;3.60;;
19758;SDS011;10038;42.662;23.278;2023-04-03T03:14:25;5.17;;;3.13;;
19758;SDS011;10038;42.662;23.278;2023-04-03T03:16:54;4.13;;;3.40;;
19758;SDS011;10038;42.662;23.278;2023-04-03T03:19:21;4.60;;;3.33;;
19758;SDS011;10038;42.662;23.278;2023-04-03T03:21:48;5.07;;;4.57;;
19758;SDS011;10038;42.662;23.278;2023-04-03T03:24:15;11.20;;;4.70;;
19758;SDS011;10038;42.662;23.278;2023-04-03T03:26:42;10.57;;;5.37;;
19758;SDS011;10038;42.662;23.278;2023-04-03T03:29:09;5.17;;;4.10;;
19758;SDS011;10038;42.662;23.278;2023-04-03T03:31:36;7.10;;;4.70;;
19758;SDS011;10038;42.662;23.278;2023-04-03T03:34:05;9.93;;;4.20;;
19758;SDS011;10038;42.662;23.278;2023-04-03T03:36:32;5.53;;;4.27;;
19758;SDS011;10038;42.662;23.278;2023-04-03T03:38:59;5.00;;;3.53;;
19758;SDS011;10038;42.662;23.278;2023-04-03T03:41:26;11.50;;;3.73;;
19758;SDS011;10038;42.662;23.278;2023-04-03T03:43:53;8.53;;;4.70;;
19758;SDS011;10038;42.662;23.278;2023-04-03T03:46:20;6.27;;;5.13;;
19758;SDS011;10038;42.662;23.278;2023-04-03T03:48:47;9.93;;;3.83;;
19758;SDS011;10038;42.662;23.278;2023-04-03T03:51:15;6.47;;;4.03;;
19758;SDS011;10038;42.662;23.278;2023-04-03T03:53:42;7.60;;;4.47;;
19758;SDS011;10038;42.662;23.278;2023-04-03T03:56:09;8.43;;;4.40;;
19758;SDS011;10038;42.662;23.278;2023-04-03T03:58:36;4.83;;;3.80;;
19758;SDS011;10038;42.662;23.278;2023-04-03T04:01:04;4.73;;;3.73;;
19758;SDS011;10038;42.662;23.278;2023-04-03T04:03:32;5.10;;;3.90;;
19758;SDS011;10038;42.662;23.278;2023-04-03T04:05:59;5.17;;;4.30;;
19758;SDS011;10038;42.662;23.278;2023-04-03T04:08:27;6.17;;;4.23;;
19758;SDS011;10038;42.662;23.278;2023-04-03T04:10:54;5.03;;;3.80;;
19758;SDS011;10038;42.662;23.278;2023-04-03T04:13:22;5.57;;;4.20;;
19758;SDS011;10038;42.662;23.278;2023-04-03T04:15:49;10.27;;;5.17;;
19758;SDS011;10038;42.662;23.278;2023-04-03T04:18:16;7.73;;;4.90;;
19758;SDS011;10038;42.662;23.278;2023-04-03T04:20:45;7.40;;;5.13;;
19758;SDS011;10038;42.662;23.278;2023-04-03T04:23:12;12.80;;;5.30;;
19758;SDS011;10038;42.662;23.278;2023-04-03T04:25:41;13.60;;;6.20;;
19758;SDS011;10038;42.662;23.278;2023-04-03T04:28:10;8.03;;;5.40;;
19758;SDS011;10038;42.662;23.278;2023-04-03T04:30:37;13.40;;;5.63;;
19758;SDS011;10038;42.662;23.278;2023-04-03T04:33:04;12.10;;;6.57;;
19758;SDS011;10038;42.662;23.278;2023-04-03T04:35:32;7.17;;;6.47;;
19758;SDS011;10038;42.662;23.278;2023-04-03T04:37:59;10.90;;;7.17;;
19758;SDS011;10038;42.662;23.278;2023-04-03T04:40:26;13.27;;;8.00;;
19758;SDS011;10038;42.662;23.278;2023-04-03T04:42:56;15.27;;;7.70;;
19758;SDS011;10038;42.662;23.278;2023-04-03T04:45:23;16.63;;;7.00;;
19758;SDS011;10038;42.662;23.278;2023-04-03T04:47:50;14.93;;;9.30;;
19758;SDS011;10038;42.662;23.278;2023-04-03T04:50:18;14.03;;;9.80;;
19758;SDS011;10038;42.662;23.278;2023-04-03T04:52:45;29.97;;;9.33;;
19758;SDS011;10038;42.662;23.278;2023-04-03T04:55:12;15.83;;;9.60;;
19758;SDS011;10038;42.662;23.278;2023-04-03T04:57:39;22.43;;;10.53;;
19758;SDS011;10038;42.662;23.278;2023-04-03T05:00:08;12.50;;;9.07;;
19758;SDS011;10038;42.662;23.278;2023-04-03T05:02:36;13.40;;;9.00;;
19758;SDS011;10038;42.662;23.278;2023-04-03T05:05:03;20.60;;;9.00;;
19758;SDS011;10038;42.662;23.278;2023-04-03T05:07:30;14.87;;;9.43;;
19758;SDS011;10038;42.662;23.278;2023-04-03T05:09:57;19.27;;;10.50;;
19758;SDS011;10038;42.662;23.278;2023-04-03T05:12:24;15.37;;;9.30;;
19758;SDS011;10038;42.662;23.278;2023-04-03T05:14:51;15.70;;;9.60;;
19758;SDS011;10038;42.662;23.278;2023-04-03T05:17:20;13.10;;;8.97;;
19758;SDS011;10038;42.662;23.278;2023-04-03T05:19:47;12.37;;;7.53;;
19758;SDS011;10038;42.662;23.278;2023-04-03T05:22:14;11.60;;;8.20;;
19758;SDS011;10038;42.662;23.278;2023-04-03T05:24:41;14.03;;;8.60;;
19758;SDS011;10038;42.662;23.278;2023-04-03T05:27:08;19.10;;;10.73;;
19758;SDS011;10038;42.662;23.278;2023-04-03T05:29:36;11.30;;;8.37;;
19758;SDS011;10038;42.662;23.278;2023-04-03T05:32:03;14.40;;;8.50;;
19758;SDS011;10038;42.662;23.278;2023-04-03T05:34:31;21.30;;;12.50;;
19758;SDS011;10038;42.662;23.278;2023-04-03T05:36:58;15.83;;;9.20;;
19758;SDS011;10038;42.662;23.278;2023-04-03T05:39:26;16.17;;;9.70;;
19758;SDS011;10038;42.662;23.278;2023-04-03T05:41:53;17.27;;;8.40;;
19758;SDS011;10038;42.662;23.278;2023-04-03T05:44:20;17.20;;;9.67;;
19758;SDS011;10038;42.662;23.278;2023-04-03T05:46:47;14.63;;;8.63;;
19758;SDS011;10038;42.662;23.278;2023-04-03T05:49:14;19.53;;;9.37;;
19758;SDS011;10038;42.662;23.278;2023-04-03T05:51:42;13.13;;;9.30;;
19758;SDS011;10038;42.662;23.278;2023-04-03T05:54:11;13.27;;;8.50;;
19758;SDS011;10038;42.662;23.278;2023-04-03T05:56:40;11.80;;;8.60;;
19758;SDS011;10038;42.662;23.278;2023-04-03T05:59:08;15.43;;;9.07;;
19758;SDS011;10038;42.662;23.278;2023-04-03T06:01:36;18.50;;;8.83;;
19758;SDS011;10038;42.662;23.278;2023-04-03T06:04:04;21.37;;;12.33;;
19758;SDS011;10038;42.662;23.278;2023-04-03T06:06:44;17.37;;;10.90;;
19758;SDS011;10038;42.662;23.278;2023-04-03T06:09:13;19.30;;;10.87;;
19758;SDS011;10038;42.662;23.278;2023-04-03T06:11:40;16.43;;;9.90;;
19758;SDS011;10038;42.662;23.278;2023-04-03T06:14:08;12.07;;;8.03;;
19758;SDS011;10038;42.662;23.278;2023-04-03T06:16:35;13.20;;;9.23;;
19758;SDS011;10038;42.662;23.278;2023-04-03T06:19:03;14.67;;;9.20;;
19758;SDS011;10038;42.662;23.278;2023-04-03T06:21:31;10.10;;;9.10;;
19758;SDS011;10038;42.662;23.278;2023-04-03T06:23:59;16.23;;;10.40;;
19758;SDS011;10038;42.662;23.278;2023-04-03T06:26:27;12.80;;;9.80;;
19758;SDS011;10038;42.662;23.278;2023-04-03T06:28:54;18.87;;;11.20;;
19758;SDS011;10038;42.662;23.278;2023-04-03T06:31:22;12.77;;;9.10;;
19758;SDS011;10038;42.662;23.278;2023-04-03T06:33:49;13.70;;;9.03;;
19758;SDS011;10038;42.662;23.278;2023-04-03T06:36:17;15.23;;;8.50;;
19758;SDS011;10038;42.662;23.278;2023-04-03T06:38:46;11.77;;;9.03;;
19758;SDS011;10038;42.662;23.278;2023-04-03T06:41:15;16.83;;;9.47;;
19758;SDS011;10038;42.662;23.278;2023-04-03T06:43:42;9.47;;;7.30;;
19758;SDS011;10038;42.662;23.278;2023-04-03T06:46:12;13.93;;;7.70;;
19758;SDS011;10038;42.662;23.278;2023-04-03T06:48:41;9.47;;;7.00;;
19758;SDS011;10038;42.662;23.278;2023-04-03T06:51:11;8.90;;;6.40;;
19758;SDS011;10038;42.662;23.278;2023-04-03T06:53:43;9.20;;;7.30;;
19758;SDS011;10038;42.662;23.278;2023-04-03T06:56:10;10.03;;;6.60;;
19758;SDS011;10038;42.662;23.278;2023-04-03T06:58:39;13.93;;;7.63;;
19758;SDS011;10038;42.662;23.278;2023-04-03T07:01:06;18.23;;;8.50;;
19758;SDS011;10038;42.662;23.278;2023-04-03T07:03:34;17.50;;;7.70;;
19758;SDS011;10038;42.662;23.278;2023-04-03T07:06:02;8.83;;;7.70;;
19758;SDS011;10038;42.662;23.278;2023-04-03T07:08:29;13.03;;;7.77;;
19758;SDS011;10038;42.662;23.278;2023-04-03T07:10:56;11.80;;;8.40;;
19758;SDS011;10038;42.662;23.278;2023-04-03T07:13:24;8.13;;;6.87;;
19758;SDS011;10038;42.662;23.278;2023-04-03T07:15:53;8.47;;;5.00;;
19758;SDS011;10038;42.662;23.278;2023-04-03T07:18:20;6.67;;;4.47;;
19758;SDS011;10038;42.662;23.278;2023-04-03T07:20:47;5.60;;;4.33;;
19758;SDS011;10038;42.662;23.278;2023-04-03T07:23:15;9.50;;;4.80;;
19758;SDS011;10038;42.662;23.278;2023-04-03T07:25:42;6.77;;;5.33;;
19758;SDS011;10038;42.662;23.278;2023-04-03T07:28:10;7.43;;;4.60;;
19758;SDS011;10038;42.662;23.278;2023-04-03T07:30:42;8.23;;;6.70;;
19758;SDS011;10038;42.662;23.278;2023-04-03T07:33:12;6.83;;;6.03;;
19758;SDS011;10038;42.662;23.278;2023-04-03T07:35:40;17.07;;;5.77;;
19758;SDS011;10038;42.662;23.278;2023-04-03T07:38:07;10.13;;;5.90;;
19758;SDS011;10038;42.662;23.278;2023-04-03T07:40:35;9.37;;;5.00;;
19758;SDS011;10038;42.662;23.278;2023-04-03T07:43:02;7.00;;;5.43;;
19758;SDS011;10038;42.662;23.278;2023-04-03T07:45:30;9.33;;;5.47;;
19758;SDS011;10038;42.662;23.278;2023-04-03T07:47:58;10.63;;;6.57;;
19758;SDS011;10038;42.662;23.278;2023-04-03T07:50:26;8.40;;;5.30;;
19758;SDS011;10038;42.662;23.278;2023-04-03T07:52:55;9.77;;;5.60;;
19758;SDS011;10038;42.662;23.278;2023-04-03T07:55:22;10.23;;;5.00;;
19758;SDS011;10038;42.662;23.278;2023-04-03T07:57:49;8.20;;;4.93;;
19758;SDS011;10038;42.662;23.278;2023-04-03T08:00:17;6.70;;;4.60;;
19758;SDS011;10038;42.662;23.278;2023-04-03T08:02:44;4.37;;;3.97;;
19758;SDS011;10038;42.662;23.278;2023-04-03T08:05:15;5.87;;;4.17;;
19758;SDS011;10038;42.662;23.278;2023-04-03T08:07:44;6.13;;;4.47;;
19758;SDS011;10038;42.662;23.278;2023-04-03T08:10:11;5.00;;;3.70;;
19758;SDS011;10038;42.662;23.278;2023-04-03T08:12:39;8.10;;;4.30;;
19758;SDS011;10038;42.662;23.278;2023-04-03T08:15:07;4.40;;;3.97;;
19758;SDS011;10038;42.662;23.278;2023-04-03T08:17:34;4.93;;;4.13;;
19758;SDS011;10038;42.662;23.278;2023-04-03T08:20:02;3.80;;;3.40;;
19758;SDS011;10038;42.662;23.278;2023-04-03T08:22:31;4.77;;;3.97;;
19758;SDS011;10038;42.662;23.278;2023-04-03T08:25:00;4.97;;;3.77;;
19758;SDS011;10038;42.662;23.278;2023-04-03T08:27:27;8.83;;;4.27;;
19758;SDS011;10038;42.662;23.278;2023-04-03T08:29:55;4.87;;;4.43;;
19758;SDS011;10038;42.662;23.278;2023-04-03T08:32:22;7.43;;;4.60;;
19758;SDS011;10038;42.662;23.278;2023-04-03T08:34:49;8.10;;;5.13;;
19758;SDS011;10038;42.662;23.278;2023-04-03T08:37:16;7.27;;;5.50;;
19758;SDS011;10038;42.662;23.278;2023-04-03T08:39:44;6.13;;;5.40;;
19758;SDS011;10038;42.662;23.278;2023-04-03T08:42:16;9.63;;;6.80;;
19758;SDS011;10038;42.662;23.278;2023-04-03T08:44:54;12.07;;;9.30;;
19758;SDS011;10038;42.662;23.278;2023-04-03T08:47:37;11.73;;;7.50;;
19758;SDS011;10038;42.662;23.278;2023-04-03T08:50:07;9.73;;;7.30;;
19758;SDS011;10038;42.662;23.278;2023-04-03T08:52:38;14.63;;;8.27;;
19758;SDS011;10038;42.662;23.278;2023-04-03T08:55:13;10.60;;;8.10;;
19758;SDS011;10038;42.662;23.278;2023-04-03T08:57:49;16.63;;;9.17;;
19758;SDS011;10038;42.662;23.278;2023-04-03T09:00:46;14.07;;;10.30;;
19758;SDS011;10038;42.662;23.278;2023-04-03T09:03:17;13.63;;;10.67;;
19758;SDS011;10038;42.662;23.278;2023-04-03T09:05:47;16.13;;;11.40;;
19758;SDS011;10038;42.662;23.278;2023-04-03T09:08:23;17.50;;;12.50;;
19758;SDS011;10038;42.662;23.278;2023-04-03T09:10:58;21.70;;;14.70;;
19758;SDS011;10038;42.662;23.278;2023-04-03T09:13:36;19.00;;;13.57;;
19758;SDS011;10038;42.662;23.278;2023-04-03T09:16:16;28.80;;;16.03;;
19758;SDS011;10038;42.662;23.278;2023-04-03T09:18:48;19.63;;;13.13;;
19758;SDS011;10038;42.662;23.278;2023-04-03T09:21:21;19.03;;;13.83;;
19758;SDS011;10038;42.662;23.278;2023-04-03T09:23:53;17.67;;;9.03;;
19758;SDS011;10038;42.662;23.278;2023-04-03T09:26:31;14.93;;;9.20;;
19758;SDS011;10038;42.662;23.278;2023-04-03T09:29:06;16.23;;;8.10;;
19758;SDS011;10038;42.662;23.278;2023-04-03T09:31:36;13.37;;;9.63;;
19758;SDS011;10038;42.662;23.278;2023-04-03T09:34:06;14.33;;;7.03;;
19758;SDS011;10038;42.662;23.278;2023-04-03T09:36:39;17.20;;;8.83;;
19758;SDS011;10038;42.662;23.278;2023-04-03T09:39:10;10.00;;;6.00;;
19758;SDS011;10038;42.662;23.278;2023-04-03T09:41:39;10.43;;;4.97;;
19758;SDS011;10038;42.662;23.278;2023-04-03T09:44:20;6.70;;;4.17;;
19758;SDS011;10038;42.662;23.278;2023-04-03T09:46:48;23.70;;;10.27;;
19758;SDS011;10038;42.662;23.278;2023-04-03T09:49:15;2.87;;;2.33;;
19758;SDS011;10038;42.662;23.278;2023-04-03T09:51:43;4.00;;;2.20;;
19758;SDS011;10038;42.662;23.278;2023-04-03T09:57:05;18.20;;;6.30;;
19758;SDS011;10038;42.662;23.278;2023-04-03T09:59:36;3.80;;;1.90;;
19758;SDS011;10038;42.662;23.278;2023-04-03T10:02:19;5.27;;;4.00;;
19758;SDS011;10038;42.662;23.278;2023-04-03T10:05:01;5.10;;;4.33;;
19758;SDS011;10038;42.662;23.278;2023-04-03T10:07:31;4.40;;;2.80;;
19758;SDS011;10038;42.662;23.278;2023-04-03T10:10:01;2.30;;;2.00;;
19758;SDS011;10038;42.662;23.278;2023-04-03T10:12:29;2.40;;;2.20;;
19758;SDS011;10038;42.662;23.278;2023-04-03T10:14:58;3.50;;;2.00;;
19758;SDS011;10038;42.662;23.278;2023-04-03T10:17:30;3.80;;;2.40;;
19758;SDS011;10038;42.662;23.278;2023-04-03T10:20:06;5.00;;;2.00;;
19758;SDS011;10038;42.662;23.278;2023-04-03T10:22:43;3.07;;;2.00;;
19758;SDS011;10038;42.662;23.278;2023-04-03T10:25:27;3.80;;;1.87;;
19758;SDS011;10038;42.662;23.278;2023-04-03T10:28:03;3.80;;;2.00;;
19758;SDS011;10038;42.662;23.278;2023-04-03T10:30:39;2.63;;;2.10;;
19758;SDS011;10038;42.662;23.278;2023-04-03T10:33:18;6.40;;;2.53;;
19758;SDS011;10038;42.662;23.278;2023-04-03T10:35:55;3.10;;;2.03;;
19758;SDS011;10038;42.662;23.278;2023-04-03T10:38:37;2.20;;;1.67;;
19758;SDS011;10038;42.662;23.278;2023-04-03T10:41:15;2.23;;;1.70;;
19758;SDS011;10038;42.662;23.278;2023-04-03T10:43:50;6.60;;;2.60;;
19758;SDS011;10038;42.662;23.278;2023-04-03T10:46:26;3.57;;;2.60;;
19758;SDS011;10038;42.662;23.278;2023-04-03T10:49:04;5.20;;;2.80;;
19758;SDS011;10038;42.662;23.278;2023-04-03T10:51:43;2.80;;;2.40;;
19758;SDS011;10038;42.662;23.278;2023-04-03T10:54:12;3.80;;;2.53;;
19758;SDS011;10038;42.662;23.278;2023-04-03T10:56:44;2.50;;;2.30;;
19758;SDS011;10038;42.662;23.278;2023-04-03T10:59:18;4.00;;;1.87;;
19758;SDS011;10038;42.662;23.278;2023-04-03T11:01:53;4.17;;;2.60;;
19758;SDS011;10038;42.662;23.278;2023-04-03T11:04:23;14.70;;;2.30;;
19758;SDS011;10038;42.662;23.278;2023-04-03T11:06:54;3.47;;;2.00;;
19758;SDS011;10038;42.662;23.278;2023-04-03T11:09:26;2.17;;;1.53;;
19758;SDS011;10038;42.662;23.278;2023-04-03T11:11:55;2.50;;;2.10;;
19758;SDS011;10038;42.662;23.278;2023-04-03T11:14:27;5.77;;;2.73;;
19758;SDS011;10038;42.662;23.278;2023-04-03T11:17:01;2.30;;;1.87;;
19758;SDS011;10038;42.662;23.278;2023-04-03T11:19:34;3.13;;;2.73;;
19758;SDS011;10038;42.662;23.278;2023-04-03T11:22:08;3.30;;;2.17;;
19758;SDS011;10038;42.662;23.278;2023-04-03T11:24:41;2.97;;;2.73;;
19758;SDS011;10038;42.662;23.278;2023-04-03T11:27:11;6.13;;;3.23;;
19758;SDS011;10038;42.662;23.278;2023-04-03T11:29:44;4.20;;;3.07;;
19758;SDS011;10038;42.662;23.278;2023-04-03T11:32:23;7.70;;;4.40;;
19758;SDS011;10038;42.662;23.278;2023-04-03T11:35:00;3.07;;;2.70;;
19758;SDS011;10038;42.662;23.278;2023-04-03T11:37:31;4.10;;;3.20;;
19758;SDS011;10038;42.662;23.278;2023-04-03T11:40:03;5.77;;;3.57;;
19758;SDS011;10038;42.662;23.278;2023-04-03T11:42:34;6.83;;;4.57;;
19758;SDS011;10038;42.662;23.278;2023-04-03T11:45:17;5.33;;;4.50;;
19758;SDS011;10038;42.662;23.278;2023-04-03T11:47:54;4.40;;;3.90;;
19758;SDS011;10038;42.662;23.278;2023-04-03T11:50:42;5.83;;;4.10;;
19758;SDS011;10038;42.662;23.278;2023-04-03T11:53:27;4.23;;;3.83;;
19758;SDS011;10038;42.662;23.278;2023-04-03T11:56:00;5.70;;;3.90;;
19758;SDS011;10038;42.662;23.278;2023-04-03T11:58:30;5.93;;;4.23;;
19758;SDS011;10038;42.662;23.278;2023-04-03T12:01:02;9.33;;;4.17;;
19758;SDS011;10038;42.662;23.278;2023-04-03T12:06:51;5.03;;;4.10;;
19758;SDS011;10038;42.662;23.278;2023-04-03T12:12:39;7.30;;;4.03;;
19758;SDS011;10038;42.662;23.278;2023-04-03T12:15:21;3.73;;;3.43;;
19758;SDS011;10038;42.662;23.278;2023-04-03T12:21:17;8.23;;;3.90;;
19758;SDS011;10038;42.662;23.278;2023-04-03T12:24:03;4.87;;;3.13;;
19758;SDS011;10038;42.662;23.278;2023-04-03T12:26:36;6.37;;;3.80;;
19758;SDS011;10038;42.662;23.278;2023-04-03T12:29:12;4.87;;;4.20;;
19758;SDS011;10038;42.662;23.278;2023-04-03T12:31:52;5.03;;;4.53;;
19758;SDS011;10038;42.662;23.278;2023-04-03T12:34:38;4.70;;;4.13;;
19758;SDS011;10038;42.662;23.278;2023-04-03T12:37:26;4.57;;;4.13;;
19758;SDS011;10038;42.662;23.278;2023-04-03T12:40:08;7.13;;;3.73;;
19758;SDS011;10038;42.662;23.278;2023-04-03T12:42:47;7.10;;;4.43;;
19758;SDS011;10038;42.662;23.278;2023-04-03T12:45:24;8.80;;;5.90;;
19758;SDS011;10038;42.662;23.278;2023-04-03T12:47:53;3.97;;;3.57;;
19758;SDS011;10038;42.662;23.278;2023-04-03T12:50:22;5.67;;;4.70;;
19758;SDS011;10038;42.662;23.278;2023-04-03T12:52:59;6.40;;;5.13;;
19758;SDS011;10038;42.662;23.278;2023-04-03T12:55:32;8.53;;;5.60;;
19758;SDS011;10038;42.662;23.278;2023-04-03T12:58:12;6.43;;;4.70;;
19758;SDS011;10038;42.662;23.278;2023-04-03T13:00:41;10.03;;;6.03;;
19758;SDS011;10038;42.662;23.278;2023-04-03T13:03:19;6.93;;;5.47;;
19758;SDS011;10038;42.662;23.278;2023-04-03T13:05:49;15.47;;;6.10;;
19758;SDS011;10038;42.662;23.278;2023-04-03T13:08:16;11.10;;;5.67;;
19758;SDS011;10038;42.662;23.278;2023-04-03T13:10:52;8.70;;;6.00;;
19758;SDS011;10038;42.662;23.278;2023-04-03T13:13:23;8.30;;;6.87;;
19758;SDS011;10038;42.662;23.278;2023-04-03T13:15:51;11.07;;;6.00;;
19758;SDS011;10038;42.662;23.278;2023-04-03T13:18:29;7.53;;;6.03;;
19758;SDS011;10038;42.662;23.278;2023-04-03T13:21:00;6.33;;;5.70;;
19758;SDS011;10038;42.662;23.278;2023-04-03T13:23:29;10.83;;;6.20;;
19758;SDS011;10038;42.662;23.278;2023-04-03T13:25:59;7.80;;;7.00;;
19758;SDS011;10038;42.662;23.278;2023-04-03T13:28:29;9.67;;;7.33;;
19758;SDS011;10038;42.662;23.278;2023-04-03T13:30:59;8.93;;;6.20;;
19758;SDS011;10038;42.662;23.278;2023-04-03T13:33:31;9.27;;;6.53;;
19758;SDS011;10038;42.662;23.278;2023-04-03T13:36:04;9.07;;;6.50;;
19758;SDS011;10038;42.662;23.278;2023-04-03T13:38:33;8.13;;;6.70;;
19758;SDS011;10038;42.662;23.278;2023-04-03T13:41:03;8.63;;;6.40;;
19758;SDS011;10038;42.662;23.278;2023-04-03T13:43:33;8.77;;;6.07;;
19758;SDS011;10038;42.662;23.278;2023-04-03T13:46:04;9.10;;;6.67;;
19758;SDS011;10038;42.662;23.278;2023-04-03T13:48:49;8.03;;;6.80;;
19758;SDS011;10038;42.662;23.278;2023-04-03T13:51:18;8.30;;;6.70;;
19758;SDS011;10038;42.662;23.278;2023-04-03T13:53:52;12.37;;;8.20;;
19758;SDS011;10038;42.662;23.278;2023-04-03T13:56:26;7.77;;;5.60;;
19758;SDS011;10038;42.662;23.278;2023-04-03T13:58:58;8.73;;;7.33;;
19758;SDS011;10038;42.662;23.278;2023-04-03T14:01:42;8.40;;;5.90;;
19758;SDS011;10038;42.662;23.278;2023-04-03T14:04:15;5.37;;;4.87;;
19758;SDS011;10038;42.662;23.278;2023-04-03T14:06:44;6.13;;;4.73;;
19758;SDS011;10038;42.662;23.278;2023-04-03T14:09:12;6.40;;;4.70;;
19758;SDS011;10038;42.662;23.278;2023-04-03T14:11:41;6.30;;;4.77;;
19758;SDS011;10038;42.662;23.278;2023-04-03T14:14:12;7.27;;;5.50;;
19758;SDS011;10038;42.662;23.278;2023-04-03T14:16:42;8.10;;;5.70;;
19758;SDS011;10038;42.662;23.278;2023-04-03T14:19:16;4.57;;;4.17;;
19758;SDS011;10038;42.662;23.278;2023-04-03T14:21:46;5.03;;;4.30;;
19758;SDS011;10038;42.662;23.278;2023-04-03T14:24:13;6.80;;;5.03;;
19758;SDS011;10038;42.662;23.278;2023-04-03T14:26:43;4.70;;;3.50;;
19758;SDS011;10038;42.662;23.278;2023-04-03T14:29:11;5.13;;;4.10;;
19758;SDS011;10038;42.662;23.278;2023-04-03T14:31:40;5.50;;;4.30;;
19758;SDS011;10038;42.662;23.278;2023-04-03T14:34:07;6.73;;;5.00;;
19758;SDS011;10038;42.662;23.278;2023-04-03T14:36:35;5.73;;;4.40;;
19758;SDS011;10038;42.662;23.278;2023-04-03T14:39:05;4.13;;;3.60;;
19758;SDS011;10038;42.662;23.278;2023-04-03T14:41:33;4.83;;;3.60;;
19758;SDS011;10038;42.662;23.278;2023-04-03T14:44:02;3.80;;;3.50;;
19758;SDS011;10038;42.662;23.278;2023-04-03T14:46:30;4.20;;;3.80;;
19758;SDS011;10038;42.662;23.278;2023-04-03T14:48:59;4.83;;;4.30;;
19758;SDS011;10038;42.662;23.278;2023-04-03T14:51:26;4.40;;;3.30;;
19758;SDS011;10038;42.662;23.278;2023-04-03T14:53:53;5.00;;;4.23;;
19758;SDS011;10038;42.662;23.278;2023-04-03T14:56:21;3.50;;;2.93;;
19758;SDS011;10038;42.662;23.278;2023-04-03T14:58:51;4.10;;;3.43;;
19758;SDS011;10038;42.662;23.278;2023-04-03T15:01:23;4.33;;;3.33;;
19758;SDS011;10038;42.662;23.278;2023-04-03T15:03:50;5.90;;;2.40;;